KSWF/SWF METAR and TAF weather

Enter ICAO airport designator
Station Type Date Time Source
KSWF METAR 2019/08/18 08:45 UTC NOAA

KSWF 180845Z VRB04KT 3SM BR OVC003 21/21 A3001


Station Type Date Time Source
KSWF Decoded METAR 2019/08/18 08:45 UTC NOAA

Station name not available
Aug 18, 2019 - 04:45 AM EDT / 2019.08.18 0845 UTC
Wind: Variable at 5 MPH (4 KT):0
Visibility: 3 mile(s):0
Sky conditions: overcast
Weather: mist
Temperature: 69 F (21 C)
Dew Point: 69 F (21 C)
Relative Humidity: 100%
Pressure (altimeter): 30.01 in. Hg (1016 hPa)
ob: KSWF 180845Z VRB04KT 3SM BR OVC003 21/21 A3001
cycle: 9

Station Type Date Time Source
KSWF TAF 2019/08/18 09:36 UTC NOAA

TAF
AMD KSWF 180833Z 1809/1912 VRB03KT P6SM SCT025 BKN050
TEMPO 1809/1813 3SM BR BKN005
FM181500 21008KT P6SM SCT040
FM190000 21005KT P6SM VCSH SCT040
AMD NOT SKED

Example: see airport list